• Join FlightAware (Why Join?)
  • Login
  • US Flag 
07:30PM EDT


 

Airport Tracker/Info


-or-


 

Live Flight TrackerFlight Track Log ✈ EJA589 ✈ 07-May-2013 ✈ KSAN - KPDX

Flight Track Log - Related Links

Times and Time Zones

All times are in EDT time to prevent confusion due to time zone crossing. See the EJA589 flight status page for this flight to view local times or setup timezone preferences in your user account.

Time Position Orientation Groundspeed Altitude Reporting Facility
EDT Latitude Longitude Course Direction KTS MPH feet Rate Location/Type
11:35AM 32.7428 -117.2125 305° West 200 230 1,400  Level Los Angeles Center
11:36AM 32.7806 -117.2761 305° West 200 230 5,900 3,480 Climbing Los Angeles Center
11:37AM 32.8200 -117.3358 308° West 228 262 8,600 2,940 Climbing Los Angeles Center
11:38AM 32.8664 -117.4075 308° West 261 300 12,000 3,180 Climbing Los Angeles Center
11:39AM 32.9197 -117.4728 314° West 273 314 15,200 2,880 Climbing Los Angeles Center
11:40AM 32.9736 -117.5425 313° West 281 323 18,000 2,820 Climbing Los Angeles Center
11:41AM 33.0408 -117.6264 314° West 290 334 21,100 2,460 Climbing Los Angeles Center
11:42AM 33.0997 -117.7044 312° West 310 357 23,100 2,040 Climbing Los Angeles Center
11:43AM 33.1603 -117.7875 311° West 326 375 25,400 2,220 Climbing Los Angeles Center
11:44AM 33.2219 -117.8664 313° West 325 374 27,700 1,980 Climbing Los Angeles Center
11:45AM 33.2836 -117.9425 314° West 321 369 29,600 1,740 Climbing Los Angeles Center
11:46AM 33.3442 -118.0181 314° West 315 362 31,400 1,800 Climbing Los Angeles Center
11:47AM 33.4156 -118.1117 312° West 315 362 33,400 1,740 Climbing Los Angeles Center
11:48AM 33.4736 -118.1894 312° West 314 361 35,000 1,560 Climbing Los Angeles Center
11:49AM 33.5325 -118.2656 313° West 312 359 36,700 1,380 Climbing Los Angeles Center
11:50AM 33.6172 -118.3122 335° Northwest 340 391 37,900 960 Climbing Los Angeles Center
11:51AM 33.7156 -118.3519 341° North 351 404 38,700 600 Climbing Los Angeles Center
11:52AM 33.8136 -118.3919 341° North 364 419 39,200 540 Climbing Los Angeles Center
11:53AM 33.9186 -118.4331 342° North 377 434 39,900 360 Climbing Los Angeles Center
11:55AM 34.0261 -118.4589 349° North 391 450 40,000  Climbing Los Angeles Center
11:56AM 34.1392 -118.4800 351° North 405 466 40,000  Level Los Angeles Center
11:57AM 34.2747 -118.5086 350° North 413 475 40,000  Level Los Angeles Center
11:58AM 34.3769 -118.5600 337° Northwest 399 459 40,000  Level Los Angeles Center
11:59AM 34.4800 -118.6094 338° Northwest 399 459 40,000  Level Los Angeles Center
12:00PM 34.5814 -118.6606 337° Northwest 396 456 40,000  Level Los Angeles Center
12:01PM 34.6842 -118.7106 338° Northwest 397 457 40,000  Level Los Angeles Center
12:02PM 34.7864 -118.7592 339° North 396 456 40,000  Level Los Angeles Center
12:03PM 34.9064 -118.8150 339° North 398 458 40,000  Level Los Angeles Center
12:04PM 35.0103 -118.8625 339° North 399 459 40,000  Level Los Angeles Center
12:05PM 35.1142 -118.9108 339° North 400 460 40,000  Level Los Angeles Center
12:06PM 35.2217 -118.9594 340° North 410 472 40,000  Level Los Angeles Center
12:07PM 35.3478 -119.0203 339° North 409 471 40,000  Level Los Angeles Center
12:08PM 35.4522 -119.0736 337° Northwest 409 471 40,000  Level Los Angeles Center
12:09PM 35.5561 -119.1311 336° Northwest 410 472 40,000  Level Los Angeles Center
12:10PM 35.6597 -119.1847 337° Northwest 407 468 40,000  Level Los Angeles Center
12:11PM 35.7439 -119.2283 337° Northwest 410 472 40,000  Level Los Angeles Center
12:12PM 35.8678 -119.2925 337° Northwest 405 466 40,000  Level Los Angeles Center
12:13PM 35.9925 -119.3575 337° Northwest 409 471 40,000  Level Oakland Center
12:14PM 36.0969 -119.4089 338° Northwest 408 470 40,000  Level Oakland Center
12:15PM 36.2014 -119.4619 338° Northwest 406 467 40,000  Level Oakland Center
12:16PM 36.3278 -119.5236 339° North 407 468 40,000  Level Oakland Center
12:17PM 36.4342 -119.5764 338° Northwest 413 475 40,000  Level Oakland Center
12:18PM 36.5383 -119.6325 337° Northwest 411 473 40,000  Level Oakland Center
12:19PM 36.6439 -119.6872 337° Northwest 411 473 40,000  Level Oakland Center
12:20PM 36.7500 -119.7450 336° Northwest 416 479 40,000  Level Oakland Center
12:21PM 36.8561 -119.7950 339° North 413 475 40,000  Level Oakland Center
12:22PM 36.9642 -119.8508 338° Northwest 418 481 40,000  Level Oakland Center
12:23PM 37.0900 -119.9144 338° Northwest 419 482 40,000  Level Oakland Center
12:24PM 37.1819 -119.9622 338° Northwest 421 484 40,000  Level Oakland Center
12:25PM 37.2911 -120.0183 338° Northwest 424 488 40,000  Level Oakland Center
12:26PM 37.4214 -120.0869 337° Northwest 422 486 40,000  Level Oakland Center
12:27PM 37.5283 -120.1458 336° Northwest 419 482 40,000  Level Oakland Center
12:29PM 37.6356 -120.2042 337° Northwest 418 481 40,000  Level Oakland Center
12:30PM 37.7444 -120.2589 338° Northwest 421 484 40,000  Level Oakland Center
12:31PM 37.8522 -120.3172 337° Northwest 421 484 40,000  Level Oakland Center
12:32PM 37.9617 -120.3694 339° North 421 484 40,000  Level Oakland Center
12:33PM 38.0719 -120.4228 339° North 423 487 40,000  Level Oakland Center
12:34PM 38.1800 -120.4761 339° North 419 482 40,000  Level Oakland Center
12:35PM 38.2894 -120.5300 339° North 423 487 40,000  Level Oakland Center
12:36PM 38.4203 -120.5950 339° North 422 486 40,000  Level Oakland Center
12:37PM 38.5272 -120.6508 338° Northwest 420 483 40,000  Level Oakland Center
12:38PM 38.6344 -120.7072 338° Northwest 419 482 40,000  Level Oakland Center
12:39PM 38.7406 -120.7672 336° Northwest 420 483 40,000  Level Oakland Center
12:40PM 38.8478 -120.8264 337° Northwest 422 486 40,000  Level Oakland Center
12:41PM 38.9547 -120.8878 336° Northwest 424 488 40,000  Level Oakland Center
12:42PM 39.0619 -120.9472 337° Northwest 423 487 40,000  Level Oakland Center
12:43PM 39.1683 -121.0053 337° Northwest 419 482 40,000  Level Oakland Center
12:44PM 39.2953 -121.0731 338° Northwest 413 475 40,000  Level Oakland Center
12:45PM 39.4019 -121.1294 338° Northwest 414 476 40,000  Level Oakland Center
12:46PM 39.4944 -121.1786 338° Northwest 412 474 40,000  Level Oakland Center
12:47PM 39.5994 -121.2361 337° Northwest 409 471 40,000  Level Oakland Center
12:48PM 39.7269 -121.3050 337° Northwest 415 478 40,000  Level Oakland Center
12:49PM 39.8319 -121.3669 336° Northwest 415 478 40,000  Level Oakland Center
12:50PM 39.9378 -121.4275 336° Northwest 417 480 40,000  Level Oakland Center
12:51PM 40.0431 -121.4886 336° Northwest 417 480 40,000  Level Oakland Center
12:52PM 40.1475 -121.5525 335° Northwest 417 480 40,000  Level Oakland Center
12:53PM 40.2536 -121.6167 335° Northwest 422 486 40,000  Level Oakland Center
12:54PM 40.3600 -121.6778 336° Northwest 421 484 40,000  Level Oakland Center
12:55PM 40.4869 -121.7494 337° Northwest 417 480 40,000  Level Oakland Center
12:56PM 40.5944 -121.8083 337° Northwest 420 483 40,000  Level Oakland Center
12:57PM 40.7000 -121.8689 336° Northwest 412 474 40,000  Level Oakland Center
12:58PM 40.8094 -121.9294 337° Northwest 424 488 40,000  Level Oakland Center
12:59PM 40.9150 -121.9867 338° Northwest 416 479 40,000  Level Oakland Center
01:00PM 41.0203 -122.0464 337° Northwest 414 476 40,000  Level Oakland Center
01:01PM 41.1269 -122.1058 337° Northwest 416 479 40,000  Level Oakland Center
01:02PM 41.2319 -122.1661 337° Northwest 414 476 40,000  Level Oakland Center
01:03PM 41.3506 -122.2325 337° Northwest 412 474 40,000  Level Oakland Center
01:04PM 41.3803 -122.2492 337° Northwest 412 474 40,000  Level Seattle Center
01:05PM 41.4997 -122.3169 337° Northwest 415 478 40,000  Level Seattle Center
01:06PM 41.6058 -122.3786 337° Northwest 414 476 40,000  Level Seattle Center
01:07PM 41.7125 -122.4400 337° Northwest 415 478 40,000  Level Seattle Center
01:08PM 41.8189 -122.5028 336° Northwest 416 479 40,000  Level Seattle Center
01:09PM 41.9258 -122.5647 337° Northwest 416 479 40,000  Level Seattle Center
01:10PM 42.0328 -122.6328 335° Northwest 419 482 40,000  Level Seattle Center
01:11PM 42.1394 -122.7003 335° Northwest 421 484 40,000  Level Seattle Center
01:12PM 42.2494 -122.7636 337° Northwest 427 491 40,000  Level Seattle Center
01:13PM 42.3564 -122.8303 335° Northwest 421 484 40,000  Level Seattle Center
01:14PM 42.4669 -122.8886 339° North 423 487 40,000  Level Seattle Center
01:15PM 42.5842 -122.8994 356° North 415 478 40,000  Level Seattle Center
01:16PM 42.6992 -122.8867 North 410 472 40,000  Level Seattle Center
01:17PM 42.8108 -122.8736 North 410 472 40,000  Level Seattle Center
01:18PM 42.9242 -122.8631 North 405 466 40,000  Level Seattle Center
01:19PM 43.0378 -122.8508 North 405 466 40,000  Level Seattle Center
01:20PM 43.1517 -122.8408 North 407 468 40,000 -240 Level Seattle Center
01:21PM 43.2875 -122.8267 North 406 467 39,600 -720 Descending Seattle Center
01:22PM 43.3997 -122.8189 North 403 464 38,600 -1,080 Descending Seattle Center
01:23PM 43.5061 -122.8092 North 385 443 37,500 -1,380 Descending Seattle Center
01:24PM 43.6119 -122.8000 North 382 440 35,900 -1,500 Descending Seattle Center
01:25PM 43.7225 -122.7919 North 396 456 34,500 -1,500 Descending Seattle Center
01:26PM 43.8364 -122.7825 North 410 472 32,900 -1,560 Descending Seattle Center
01:27PM 43.9508 -122.7686 North 413 475 31,400 -1,500 Descending Seattle Center
01:28PM 44.0669 -122.7556 North 419 482 29,900 -1,500 Descending Seattle Center
01:29PM 44.1858 -122.7447 North 429 494 28,400 -1,560 Descending Seattle Center
01:30PM 44.3058 -122.7353 North 435 501 26,800 -1,620 Descending Seattle Center
01:31PM 44.4372 -122.7247 North 440 506 25,200 -1,560 Descending Seattle Center
01:32PM 44.5575 -122.7131 North 438 504 23,700 -1,560 Descending Seattle Center
01:33PM 44.6750 -122.6997 North 431 496 22,100 -1,680 Descending Seattle Center
01:34PM 44.7903 -122.6844 North 423 487 20,400 -2,160 Descending Seattle Center
01:34PM 44.8433 -122.6783 North 394 453 19,200 -2,460 Descending Seattle Center
01:35PM 44.8983 -122.6739 North 401 461 17,900 -2,400 Descending Seattle Center
01:35PM 44.9486 -122.6636 North 376 433 16,800 -2,400 Descending Seattle Center
01:36PM 45.0006 -122.6578 North 380 437 15,500 -2,760 Descending Seattle Center
01:37PM 45.1189 -122.6244 11° North 360 414 12,200 -2,820 Descending Seattle Center
01:38PM 45.2025 -122.5756 22° Northeast 333 383 9,800 -2,340 Descending Seattle Center
01:39PM 45.2753 -122.5367 21° North 290 334 7,500 -2,160 Descending Seattle Center
01:40PM 45.3442 -122.4994 21° North 272 313 5,500 -1,860 Descending Seattle Center
01:41PM 45.4119 -122.4589 23° Northeast 267 307 3,800 -1,440 Descending Seattle Center
01:42PM 45.4844 -122.4194 21° North 275 316 2,600 -900 Descending Seattle Center
01:43PM 45.5428 -122.4617 333° Northwest 162 186 2,000 -780 Descending Seattle Center
01:44PM 45.5597 -122.5056 299° West 181 208 1,100 -840 Descending Seattle Center
01:45PM 45.5817 -122.5606 300° West 164 189 500 -480 Descending Seattle Center
01:46PM 45.5978 -122.6014 299° West 160 184 200 -300 Descending Seattle Center